Time;durP1;ratioP1;P1;durP2;ratioP2;P2;SDS_P1;SDS_P2;PMS_P1;PMS_P2;Temp;Humidity;BMP_temperature;BMP_pressure;BME280_temperature;BME280_humidity;BME280_pressure;Samples;Min_cycle;Max_cycle;Signal;HPM_P1;HPM_P2
2021/06/28 00:00:09;;;;;;;17.00;9.48;;;19.30;99.90;;;;;;4996222;28;20102;-78
2021/06/28 00:02:35;;;;;;;6.43;5.20;;;19.30;99.90;;;;;;5005589;28;20034;-77
2021/06/28 00:05:03;;;;;;;7.68;5.55;;;19.30;99.90;;;;;;5014716;28;20451;-78
2021/06/28 00:07:28;;;;;;;9.32;5.60;;;19.20;99.90;;;;;;4994489;28;20137;-77
2021/06/28 00:09:54;;;;;;;9.10;6.38;;;19.20;99.90;;;;;;4989909;28;20030;-76
2021/06/28 00:12:19;;;;;;;8.15;5.90;;;19.20;99.90;;;;;;5003158;28;20040;-78
2021/06/28 00:14:45;;;;;;;9.55;6.30;;;19.20;99.90;;;;;;4996657;28;20029;-79
2021/06/28 00:17:11;;;;;;;8.82;6.25;;;19.30;99.90;;;;;;5001769;28;20060;-78
2021/06/28 00:19:37;;;;;;;18.77;9.52;;;19.20;99.90;;;;;;5002951;28;20062;-77
2021/06/28 00:22:03;;;;;;;8.27;5.38;;;19.80;99.90;;;;;;5018675;28;20030;-78
2021/06/28 00:24:28;;;;;;;7.40;5.50;;;19.10;99.90;;;;;;4999422;28;20038;-78
2021/06/28 00:26:54;;;;;;;9.20;5.88;;;19.00;99.90;;;;;;5007546;28;20388;-77
2021/06/28 00:29:21;;;;;;;9.40;5.85;;;19.00;99.90;;;;;;4995207;28;20042;-78
2021/06/28 00:31:49;;;;;;;7.57;5.57;;;19.10;99.90;;;;;;4998793;28;20159;-78
2021/06/28 00:34:14;;;;;;;12.88;5.95;;;19.00;99.90;;;;;;5008615;28;20311;-76
2021/06/28 00:36:40;;;;;;;6.18;5.05;;;21.00;99.90;;;;;;5015236;28;20036;-78
2021/06/28 00:39:05;;;;;;;7.43;5.57;;;19.00;99.90;;;;;;5007713;28;20084;-77
2021/06/28 00:41:31;;;;;;;6.40;5.53;;;19.00;99.90;;;;;;4996603;28;20030;-77
2021/06/28 00:43:56;;;;;;;8.20;6.15;;;19.00;99.90;;;;;;4998515;28;20038;-77
2021/06/28 00:46:22;;;;;;;7.53;5.40;;;19.00;99.90;;;;;;5013727;28;20057;-78
2021/06/28 00:48:48;;;;;;;8.65;5.10;;;19.20;99.90;;;;;;5002841;28;20085;-77
2021/06/28 00:51:13;;;;;;;6.45;5.05;;;20.20;99.90;;;;;;5001495;28;20042;-78
2021/06/28 00:53:39;;;;;;;6.43;5.20;;;19.80;99.90;;;;;;5021461;28;20113;-78
2021/06/28 00:56:10;;;;;;;7.47;5.63;;;20.40;99.90;;;;;;4997670;28;20040;-78
2021/06/28 00:58:38;;;;;;;6.78;5.53;;;18.90;99.90;;;;;;4997960;28;20060;-79
2021/06/28 01:01:04;;;;;;;8.20;6.57;;;18.90;99.90;;;;;;5012343;28;20034;-78
2021/06/28 01:03:30;;;;;;;7.97;6.32;;;20.30;99.90;;;;;;5001206;28;20033;-78
2021/06/28 01:05:56;;;;;;;8.23;6.38;;;18.80;99.90;;;;;;4999320;28;20060;-77
2021/06/28 01:08:21;;;;;;;9.30;6.68;;;18.60;99.90;;;;;;4997356;28;21236;-78
2021/06/28 01:10:47;;;;;;;8.02;6.07;;;18.70;99.90;;;;;;4993138;28;20022;-78
2021/06/28 01:13:13;;;;;;;7.18;5.72;;;;;;;;;;5014329;28;20116;-77
2021/06/28 01:15:39;;;;;;;7.13;5.35;;;18.70;99.90;;;;;;4989745;28;20476;-77
2021/06/28 01:18:05;;;;;;;7.15;5.40;;;19.00;99.90;;;;;;4994669;28;20045;-79
2021/06/28 01:20:32;;;;;;;7.85;5.10;;;18.90;99.90;;;;;;4997016;28;20507;-78
2021/06/28 01:23:12;;;;;;;5.68;4.60;;;18.80;99.90;;;;;;5001093;28;20116;-77
2021/06/28 01:25:38;;;;;;;6.10;5.07;;;;;;;;;;5017771;28;20030;-78
2021/06/28 01:28:04;;;;;;;6.90;5.60;;;18.80;99.90;;;;;;5014486;28;20038;-77
2021/06/28 01:30:30;;;;;;;7.15;5.10;;;18.90;99.90;;;;;;5020575;28;20027;-79
2021/06/28 01:32:57;;;;;;;7.63;5.40;;;18.90;99.90;;;;;;4999075;28;20051;-79
2021/06/28 01:35:23;;;;;;;6.90;4.97;;;19.00;99.90;;;;;;4998315;28;20018;-77
2021/06/28 01:37:49;;;;;;;6.63;5.43;;;20.90;99.90;;;;;;5023357;28;20499;-79
2021/06/28 01:40:16;;;;;;;7.72;5.25;;;19.00;99.90;;;;;;5004694;28;20022;-77
2021/06/28 01:42:42;;;;;;;7.22;5.22;;;19.20;99.90;;;;;;5010689;28;20026;-77
2021/06/28 01:45:11;;;;;;;8.55;5.13;;;20.10;99.90;;;;;;5015920;28;20154;-77
2021/06/28 01:47:38;;;;;;;7.53;5.53;;;19.10;99.90;;;;;;4998641;28;20026;-77
2021/06/28 01:50:06;;;;;;;7.28;5.30;;;20.00;99.90;;;;;;5014071;28;20025;-78
2021/06/28 01:52:32;;;;;;;6.18;4.95;;;19.10;99.90;;;;;;5004854;28;20447;-77
2021/06/28 01:54:57;;;;;;;6.82;5.55;;;19.20;99.90;;;;;;5016101;28;20018;-79
2021/06/28 01:57:23;;;;;;;7.43;4.88;;;19.20;99.90;;;;;;5011032;28;20029;-77
2021/06/28 01:59:49;;;;;;;6.25;5.00;;;19.20;99.90;;;;;;4996299;28;20036;-77
2021/06/28 02:02:14;;;;;;;7.65;5.47;;;19.20;99.90;;;;;;4999416;28;20061;-77
2021/06/28 02:04:40;;;;;;;7.53;5.55;;;19.00;99.90;;;;;;5006329;28;20037;-77
2021/06/28 02:07:07;;;;;;;8.50;5.97;;;19.10;99.90;;;;;;5004543;28;20542;-78
2021/06/28 02:09:34;;;;;;;9.23;5.85;;;19.10;99.90;;;;;;5009155;28;20081;-78
2021/06/28 02:11:59;;;;;;;7.38;5.03;;;19.20;99.90;;;;;;5002886;28;20462;-77
2021/06/28 02:14:27;;;;;;;8.05;5.68;;;19.10;99.90;;;;;;4998043;28;20022;-78
2021/06/28 02:16:53;;;;;;;7.45;5.47;;;;;;;;;;4999226;28;20453;-78
2021/06/28 02:19:19;;;;;;;8.82;5.45;;;19.20;99.90;;;;;;5015659;28;20061;-78
2021/06/28 02:21:46;;;;;;;6.72;5.13;;;19.20;99.90;;;;;;5001514;28;20149;-79
2021/06/28 02:24:12;;;;;;;7.25;5.30;;;20.10;99.90;;;;;;4997570;28;20037;-78
2021/06/28 02:26:41;;;;;;;6.75;5.32;;;19.30;99.90;;;;;;5012270;28;20040;-78
2021/06/28 02:29:07;;;;;;;6.68;5.57;;;19.20;99.90;;;;;;5010936;28;20057;-78
2021/06/28 02:31:33;;;;;;;9.52;5.22;;;19.20;99.90;;;;;;4999477;28;20034;-77
2021/06/28 02:33:59;;;;;;;10.93;5.68;;;19.20;99.90;;;;;;4993888;28;20031;-78
2021/06/28 02:36:26;;;;;;;8.15;5.20;;;19.20;99.90;;;;;;4998089;28;20107;-78
2021/06/28 02:38:53;;;;;;;9.07;5.43;;;22.30;99.90;;;;;;4999607;28;21388;-78
2021/06/28 02:41:20;;;;;;;8.75;5.85;;;19.20;99.90;;;;;;5008524;28;20034;-78
2021/06/28 02:43:48;;;;;;;8.10;5.65;;;19.10;99.90;;;;;;5000270;28;20537;-78
2021/06/28 02:46:14;;;;;;;6.80;5.38;;;18.70;99.90;;;;;;5000868;28;20034;-78
2021/06/28 02:48:40;;;;;;;7.03;5.30;;;19.10;99.90;;;;;;4997834;28;20474;-78
2021/06/28 02:51:07;;;;;;;8.07;5.18;;;20.80;99.90;;;;;;5011733;28;20025;-77
2021/06/28 02:53:33;;;;;;;6.80;5.70;;;19.10;99.90;;;;;;5010710;28;20037;-77
2021/06/28 02:56:14;;;;;;;9.05;5.82;;;19.30;99.90;;;;;;5010720;28;20036;-78
2021/06/28 02:58:47;;;;;;;6.60;5.25;;;19.20;99.90;;;;;;5016525;28;20571;-78
2021/06/28 03:01:14;;;;;;;6.35;5.22;;;19.10;99.90;;;;;;5009035;28;20149;-77
2021/06/28 03:03:41;;;;;;;6.78;5.53;;;19.10;99.90;;;;;;5004932;28;20028;-77
2021/06/28 03:06:07;;;;;;;6.25;5.18;;;19.20;99.90;;;;;;5012423;28;20066;-78
2021/06/28 03:08:32;;;;;;;7.75;5.18;;;19.10;99.90;;;;;;5006377;28;20068;-77
2021/06/28 03:11:01;;;;;;;10.80;5.38;;;19.10;99.90;;;;;;4999355;28;20114;-76
2021/06/28 03:13:28;;;;;;;7.07;5.43;;;19.10;99.90;;;;;;5012582;28;20076;-78
2021/06/28 03:15:54;;;;;;;6.90;5.57;;;19.10;99.90;;;;;;5002942;28;20037;-77
2021/06/28 03:18:20;;;;;;;6.38;5.28;;;19.10;99.90;;;;;;4996100;28;20121;-77
2021/06/28 03:20:45;;;;;;;7.50;4.82;;;19.20;99.90;;;;;;5015263;28;20089;-78
2021/06/28 03:23:12;;;;;;;9.07;5.45;;;19.20;99.90;;;;;;4998844;28;20117;-78
2021/06/28 03:25:37;;;;;;;7.22;5.07;;;19.30;99.90;;;;;;4992764;28;20484;-78
2021/06/28 03:28:03;;;;;;;6.47;5.13;;;19.30;99.90;;;;;;5016521;28;20022;-77
2021/06/28 03:30:29;;;;;;;6.38;5.10;;;19.30;99.90;;;;;;5012110;28;20026;-78
2021/06/28 03:32:54;;;;;;;6.45;4.95;;;19.30;99.90;;;;;;4988247;28;20085;-79
2021/06/28 03:35:20;;;;;;;7.05;4.95;;;19.30;99.90;;;;;;5008516;28;20045;-78
2021/06/28 03:37:46;;;;;;;6.20;4.57;;;19.20;99.90;;;;;;5004948;28;20034;-78
2021/06/28 03:40:12;;;;;;;6.78;4.78;;;19.30;99.90;;;;;;5005158;28;20026;-79
2021/06/28 03:42:38;;;;;;;5.85;4.10;;;19.30;99.90;;;;;;5006885;28;20026;-77
2021/06/28 03:45:07;;;;;;;5.32;4.22;;;19.30;99.90;;;;;;5014519;28;20026;-81
2021/06/28 03:47:33;;;;;;;4.97;4.20;;;19.30;99.90;;;;;;4996884;28;20030;-79
2021/06/28 03:49:59;;;;;;;4.90;4.22;;;20.90;99.90;;;;;;5014262;28;20049;-79
2021/06/28 03:52:24;;;;;;;6.15;4.00;;;19.40;99.90;;;;;;4991812;28;20145;-77
2021/06/28 03:54:50;;;;;;;5.40;4.13;;;19.50;99.90;;;;;;5012991;28;20025;-79
2021/06/28 03:57:15;;;;;;;5.13;4.00;;;20.10;99.90;;;;;;4997212;28;20034;-79
2021/06/28 03:59:41;;;;;;;6.22;3.90;;;19.70;99.90;;;;;;5002520;28;20454;-78
2021/06/28 04:02:07;;;;;;;5.78;4.30;;;19.60;99.90;;;;;;5012323;28;20510;-77
2021/06/28 04:04:32;;;;;;;7.32;3.97;;;19.50;99.90;;;;;;5015598;28;20029;-78
2021/06/28 04:06:58;;;;;;;9.73;4.90;;;19.50;99.90;;;;;;5001879;28;20034;-78
2021/06/28 04:09:23;;;;;;;9.25;5.20;;;20.60;99.90;;;;;;5008401;28;20058;-79
2021/06/28 04:11:49;;;;;;;9.85;5.82;;;19.40;99.90;;;;;;4992373;28;20399;-78
2021/06/28 04:14:15;;;;;;;9.05;5.40;;;20.00;99.90;;;;;;4993065;28;20030;-78
2021/06/28 04:16:40;;;;;;;8.55;5.07;;;19.90;99.90;;;;;;5000215;28;20030;-78
2021/06/28 04:19:06;;;;;;;7.72;4.68;;;19.60;99.90;;;;;;4997752;28;20480;-78
2021/06/28 04:21:35;;;;;;;6.93;5.07;;;19.60;99.90;;;;;;4998496;28;20087;-78
2021/06/28 04:24:04;;;;;;;7.20;4.72;;;19.50;99.90;;;;;;4995088;28;20081;-78
2021/06/28 04:26:31;;;;;;;8.18;4.80;;;19.60;99.90;;;;;;5015103;28;20042;-78
2021/06/28 04:28:58;;;;;;;6.97;4.97;;;19.60;99.90;;;;;;4998134;28;20113;-77
2021/06/28 04:31:29;;;;;;;8.23;4.47;;;19.60;99.90;;;;;;4997019;28;20116;-76
2021/06/28 04:33:55;;;;;;;8.00;4.00;;;19.70;99.90;;;;;;4985381;28;20030;-78
2021/06/28 04:36:21;;;;;;;7.43;4.80;;;22.90;99.90;;;;;;4999782;28;20049;-78
2021/06/28 04:38:47;;;;;;;5.15;3.83;;;19.80;99.90;;;;;;5000822;28;20049;-78
2021/06/28 04:41:12;;;;;;;5.88;4.03;;;19.90;99.90;;;;;;5009550;28;20515;-77
2021/06/28 04:43:38;;;;;;;4.95;3.70;;;20.50;99.90;;;;;;4999535;28;20026;-78
2021/06/28 04:46:03;;;;;;;4.68;4.00;;;19.90;99.90;;;;;;5002596;28;20499;-79
2021/06/28 04:48:29;;;;;;;4.78;3.95;;;19.80;99.90;;;;;;4995301;28;20502;-78
2021/06/28 04:50:55;;;;;;;5.40;4.00;;;19.90;99.90;;;;;;4990839;28;21142;-79
2021/06/28 04:53:20;;;;;;;6.28;3.70;;;21.80;99.90;;;;;;4995005;28;20030;-78
2021/06/28 04:55:46;;;;;;;4.40;3.72;;;20.10;99.90;;;;;;4989388;28;20511;-79
2021/06/28 04:58:12;;;;;;;6.63;3.58;;;20.10;99.90;;;;;;4999625;28;20032;-78
2021/06/28 05:00:37;;;;;;;5.18;3.72;;;20.10;99.90;;;;;;5013125;28;20033;-77
2021/06/28 05:03:03;;;;;;;5.07;3.53;;;20.20;99.90;;;;;;4998603;28;20061;-78
2021/06/28 05:05:29;;;;;;;5.15;3.78;;;20.30;99.90;;;;;;4989596;28;20042;-78
2021/06/28 05:07:56;;;;;;;5.63;3.75;;;20.30;99.90;;;;;;4993186;28;20040;-78
2021/06/28 05:10:22;;;;;;;5.55;3.75;;;20.40;99.90;;;;;;4993126;28;20030;-77
2021/06/28 05:12:48;;;;;;;6.90;4.13;;;20.40;99.90;;;;;;4998611;28;20018;-80
2021/06/28 05:15:14;;;;;;;4.65;3.63;;;20.40;99.90;;;;;;5003520;28;20030;-78
2021/06/28 05:17:40;;;;;;;7.88;4.53;;;20.50;99.90;;;;;;4997655;28;20053;-78
2021/06/28 05:20:08;;;;;;;4.63;3.53;;;20.60;99.90;;;;;;5000498;28;20041;-78
2021/06/28 05:22:34;;;;;;;6.15;3.90;;;20.60;99.90;;;;;;4996151;28;20435;-77
2021/06/28 05:25:00;;;;;;;6.22;3.75;;;20.60;99.90;;;;;;5010442;28;20034;-77
2021/06/28 05:27:25;;;;;;;4.50;3.55;;;20.70;99.90;;;;;;4988234;28;20678;-78
2021/06/28 05:29:57;;;;;;;4.20;3.65;;;20.90;99.90;;;;;;4988820;28;20045;-79
2021/06/28 05:32:26;;;;;;;6.68;3.80;;;21.60;99.90;;;;;;4995577;28;20583;-77
2021/06/28 05:34:52;;;;;;;5.15;4.07;;;21.10;99.90;;;;;;4996360;28;20392;-77
2021/06/28 05:37:19;;;;;;;7.55;3.40;;;21.30;99.90;;;;;;5009862;28;20038;-76
2021/06/28 05:39:46;;;;;;;5.85;4.10;;;21.50;99.90;;;;;;5020529;28;20318;-80
2021/06/28 05:42:12;;;;;;;5.50;4.00;;;21.50;99.90;;;;;;4998152;28;20034;-78
2021/06/28 05:44:37;;;;;;;7.10;3.92;;;21.70;99.90;;;;;;4996575;28;20736;-78
2021/06/28 05:47:03;;;;;;;6.47;3.92;;;22.60;99.90;;;;;;5004090;28;20030;-77
2021/06/28 05:49:31;;;;;;;5.55;4.00;;;21.70;99.90;;;;;;4990999;28;20030;-75
2021/06/28 05:51:58;;;;;;;5.35;3.60;;;21.90;99.90;;;;;;5004053;28;20018;-78
2021/06/28 05:54:24;;;;;;;3.85;3.30;;;23.40;99.90;;;;;;5017386;28;20041;-78
2021/06/28 05:56:49;;;;;;;5.35;3.08;;;22.00;99.90;;;;;;5010878;28;20038;-78
2021/06/28 05:59:15;;;;;;;6.28;3.75;;;22.00;99.90;;;;;;4993928;28;20092;-78
2021/06/28 06:01:40;;;;;;;6.38;3.85;;;21.90;99.90;;;;;;5015464;28;20029;-80
2021/06/28 06:04:12;;;;;;;4.80;3.70;;;22.10;99.90;;;;;;4997344;28;20033;-80
2021/06/28 06:06:38;;;;;;;3.83;3.20;;;22.20;99.90;;;;;;5012427;28;20037;-78
2021/06/28 06:09:03;;;;;;;4.57;3.40;;;22.60;99.90;;;;;;4991097;28;20026;-78
2021/06/28 06:11:29;;;;;;;7.18;3.67;;;22.70;99.90;;;;;;5012119;28;20786;-78
2021/06/28 06:13:55;;;;;;;6.47;3.92;;;23.00;99.90;;;;;;4997779;28;20030;-79
2021/06/28 06:16:24;;;;;;;8.23;4.20;;;23.10;99.90;;;;;;4997966;28;20554;-78
2021/06/28 06:18:49;;;;;;;7.72;4.78;;;22.90;99.90;;;;;;5002267;28;20045;-78
2021/06/28 06:21:15;;;;;;;8.45;4.90;;;22.90;99.90;;;;;;5009870;28;20038;-78
2021/06/28 06:23:41;;;;;;;9.40;4.75;;;22.80;99.90;;;;;;4999450;28;20048;-78
2021/06/28 06:26:06;;;;;;;11.02;5.20;;;22.60;99.90;;;;;;5008829;28;20407;-78
2021/06/28 06:28:32;;;;;;;7.22;5.05;;;22.50;99.90;;;;;;5000441;28;20149;-78
2021/06/28 06:30:57;;;;;;;6.72;4.30;;;22.40;99.90;;;;;;4995281;28;20022;-78
2021/06/28 06:33:23;;;;;;;8.18;4.55;;;22.00;99.90;;;;;;5002763;28;20034;-77
2021/06/28 06:35:49;;;;;;;6.40;4.35;;;22.00;99.90;;;;;;5011300;28;20476;-78
2021/06/28 06:38:15;;;;;;;5.82;4.20;;;22.10;99.90;;;;;;5031011;28;20118;-78
2021/06/28 06:40:41;;;;;;;7.05;4.47;;;22.20;99.90;;;;;;5021485;28;20161;-80
2021/06/28 06:43:06;;;;;;;9.07;4.20;;;22.30;99.90;;;;;;5014596;28;20030;-77
2021/06/28 06:45:32;;;;;;;7.45;4.47;;;22.30;99.90;;;;;;5012295;28;20033;-76
2021/06/28 06:47:58;;;;;;;8.20;4.40;;;22.40;99.90;;;;;;5005275;28;20399;-77
2021/06/28 06:50:24;;;;;;;9.13;4.18;;;22.20;99.90;;;;;;5005234;28;20027;-76
2021/06/28 06:52:50;;;;;;;6.13;4.15;;;22.30;99.90;;;;;;4994553;28;20034;-78
2021/06/28 06:55:17;;;;;;;8.70;4.18;;;22.30;99.90;;;;;;5013551;28;20503;-77
2021/06/28 06:57:43;;;;;;;10.77;4.60;;;22.30;99.90;;;;;;5010345;28;20034;-78
2021/06/28 07:00:15;;;;;;;6.20;4.00;;;22.20;99.90;;;;;;4995652;28;20044;-78
2021/06/28 07:02:41;;;;;;;5.50;4.00;;;22.30;99.90;;;;;;5006486;28;20050;-77
2021/06/28 07:05:08;;;;;;;7.25;4.15;;;22.30;99.90;;;;;;5020104;28;20032;-78
2021/06/28 07:07:36;;;;;;;7.60;4.47;;;22.40;99.90;;;;;;4992634;28;20034;-78
2021/06/28 07:10:03;;;;;;;6.00;4.28;;;22.50;99.90;;;;;;4996340;28;20041;-79
2021/06/28 07:12:28;;;;;;;9.93;4.38;;;22.40;99.90;;;;;;4994726;28;20021;-78
2021/06/28 07:14:54;;;;;;;7.45;4.60;;;22.40;99.90;;;;;;5010634;28;20029;-78
2021/06/28 07:17:20;;;;;;;9.20;3.92;;;22.40;99.90;;;;;;4998848;28;20030;-76
2021/06/28 07:19:45;;;;;;;7.32;4.55;;;22.30;99.90;;;;;;5007455;28;20038;-77
2021/06/28 07:22:11;;;;;;;6.95;4.53;;;22.20;99.90;;;;;;4996848;28;20136;-78
2021/06/28 07:24:36;;;;;;;7.43;5.45;;;22.00;99.90;;;;;;4990680;28;20026;-78
2021/06/28 07:27:02;;;;;;;7.88;4.55;;;21.90;99.90;;;;;;4999743;28;20400;-77
2021/06/28 07:29:28;;;;;;;8.38;4.70;;;21.90;99.90;;;;;;4995197;28;20169;-79
2021/06/28 07:31:54;;;;;;;8.60;4.47;;;21.90;99.90;;;;;;4994029;28;20022;-77
2021/06/28 07:34:19;;;;;;;6.40;3.70;;;21.90;99.90;;;;;;5010798;28;20038;-77
2021/06/28 07:36:45;;;;;;;5.18;3.90;;;21.90;99.90;;;;;;5003586;28;20030;-77
2021/06/28 07:39:10;;;;;;;6.40;4.55;;;21.90;99.90;;;;;;5014249;28;20041;-78
2021/06/28 07:41:36;;;;;;;6.05;3.95;;;22.10;99.90;;;;;;5007507;28;20057;-78
2021/06/28 07:44:06;;;;;;;6.38;4.10;;;22.10;99.90;;;;;;5004846;28;20124;-78
2021/06/28 07:46:31;;;;;;;7.20;4.30;;;21.90;99.90;;;;;;4999958;28;20753;-77
2021/06/28 07:48:57;;;;;;;6.13;4.25;;;22.40;99.90;;;;;;5017464;28;20037;-79
2021/06/28 07:51:23;;;;;;;6.32;4.00;;;22.00;99.90;;;;;;5022043;28;20034;-78
2021/06/28 07:53:48;;;;;;;7.97;4.20;;;21.90;99.90;;;;;;5003054;28;20109;-77
2021/06/28 07:56:16;;;;;;;5.93;3.90;;;21.80;99.90;;;;;;4997297;28;20030;-77
2021/06/28 07:58:43;;;;;;;6.45;4.45;;;21.80;99.90;;;;;;5001673;28;20046;-78
2021/06/28 08:01:10;;;;;;;9.25;4.53;;;21.90;99.90;;;;;;5020565;28;20544;-78
2021/06/28 08:03:36;;;;;;;8.80;4.13;;;21.40;99.90;;;;;;5026188;28;20136;-79
2021/06/28 08:06:01;;;;;;;5.63;4.10;;;22.20;99.90;;;;;;5009946;28;20523;-78
2021/06/28 08:08:27;;;;;;;5.85;4.60;;;21.70;99.90;;;;;;5000072;28;20033;-79
2021/06/28 08:10:53;;;;;;;6.40;4.57;;;21.90;99.90;;;;;;5000357;28;20109;-78
2021/06/28 08:13:19;;;;;;;5.60;4.28;;;;;;;;;;5022700;28;20484;-78
2021/06/28 08:15:44;;;;;;;5.80;4.30;;;22.50;99.90;;;;;;5003563;28;20025;-79
2021/06/28 08:18:10;;;;;;;6.60;3.88;;;23.00;99.90;;;;;;5003614;28;20034;-78
2021/06/28 08:20:37;;;;;;;5.78;3.95;;;22.80;99.90;;;;;;5003174;28;20037;-79
2021/06/28 08:23:04;;;;;;;5.03;4.05;;;22.50;99.90;;;;;;5004833;28;20049;-80
2021/06/28 08:25:30;;;;;;;6.18;3.50;;;;;;;;;;4997261;28;20034;-79
2021/06/28 08:27:56;;;;;;;4.50;3.40;;;23.30;99.90;;;;;;5008124;28;20104;-80
2021/06/28 08:30:22;;;;;;;5.00;3.50;;;23.70;99.90;;;;;;5006449;28;20120;-80
2021/06/28 08:32:48;;;;;;;5.03;3.60;;;23.90;99.90;;;;;;5028089;28;20025;-79
2021/06/28 08:35:14;;;;;;;4.85;3.58;;;24.20;99.90;;;;;;5020367;28;20033;-79
2021/06/28 08:37:39;;;;;;;4.22;3.50;;;24.40;99.90;;;;;;5006766;28;20087;-78
2021/06/28 08:40:08;;;;;;;5.40;3.63;;;24.50;99.90;;;;;;5003375;28;20096;-78
2021/06/28 08:42:33;;;;;;;4.35;3.03;;;24.70;99.90;;;;;;5004730;28;20038;-79
2021/06/28 08:44:59;;;;;;;4.88;3.00;;;24.80;99.60;;;;;;5005616;28;20565;-79
2021/06/28 08:47:27;;;;;;;4.20;3.03;;;24.90;99.70;;;;;;5020526;28;20030;-79
2021/06/28 08:49:52;;;;;;;8.05;3.53;;;24.80;99.60;;;;;;5009425;28;20036;-78
2021/06/28 08:52:20;;;;;;;4.45;3.15;;;24.70;99.70;;;;;;4997501;28;20029;-77
2021/06/28 08:54:46;;;;;;;4.30;3.13;;;24.70;99.40;;;;;;5016443;28;20042;-77
2021/06/28 08:57:11;;;;;;;3.33;2.75;;;25.30;99.90;;;;;;5009651;28;20491;-78
2021/06/28 08:59:39;;;;;;;5.13;3.50;;;24.70;99.00;;;;;;5001521;28;20026;-77
2021/06/28 09:02:05;;;;;;;5.15;3.08;;;24.70;99.00;;;;;;5015191;28;20034;-78
2021/06/28 09:04:30;;;;;;;4.97;3.25;;;25.00;98.40;;;;;;5012097;28;20036;-79
2021/06/28 09:07:17;;;;;;;11.65;3.33;;;25.30;97.00;;;;;;4998201;28;20554;-79
2021/06/28 09:09:42;;;;;;;4.57;2.47;;;25.30;97.30;;;;;;5014108;28;20117;-78
2021/06/28 09:12:14;;;;;;;8.55;2.70;;;25.40;96.80;;;;;;4997414;28;20117;-77
2021/06/28 09:14:55;;;;;;;4.13;2.67;;;26.00;96.70;;;;;;4997291;28;20463;-78
2021/06/28 09:17:36;;;;;;;4.90;2.50;;;25.50;96.30;;;;;;4999569;28;20033;-78
2021/06/28 09:20:20;;;;;;;3.75;2.55;;;25.30;96.10;;;;;;5016442;28;20069;-80
2021/06/28 09:22:49;;;;;;;4.05;2.70;;;25.30;96.30;;;;;;5018883;28;20030;-79
2021/06/28 09:25:36;;;;;;;3.78;2.38;;;24.90;96.60;;;;;;5011955;28;20281;-77
2021/06/28 09:28:03;;;;;;;4.55;2.67;;;24.90;96.50;;;;;;5012697;28;20071;-77
2021/06/28 09:30:29;;;;;;;4.13;3.22;;;25.00;96.80;;;;;;5011075;28;20018;-75
2021/06/28 09:32:59;;;;;;;3.35;2.80;;;25.10;97.00;;;;;;4996893;28;20026;-79
2021/06/28 09:35:35;;;;;;;3.45;2.60;;;25.30;96.30;;;;;;4996404;28;20037;-79
2021/06/28 09:38:06;;;;;;;3.45;2.55;;;25.60;95.50;;;;;;5015567;28;20105;-76
2021/06/28 09:40:34;;;;;;;4.32;2.80;;;25.70;95.30;;;;;;4999961;28;20488;-77
2021/06/28 09:43:18;;;;;;;4.22;2.42;;;26.00;94.80;;;;;;5001811;28;20080;-78
2021/06/28 09:45:44;;;;;;;3.65;2.50;;;26.10;94.40;;;;;;5012832;28;20030;-77
2021/06/28 09:48:26;;;;;;;2.78;2.10;;;26.00;93.50;;;;;;5002766;28;20042;-78
2021/06/28 09:51:20;;;;;;;4.40;2.60;;;26.10;93.00;;;;;;5005315;28;20028;-77
2021/06/28 09:53:48;;;;;;;4.00;2.40;;;26.10;93.10;;;;;;5009714;28;20088;-78
2021/06/28 09:56:39;;;;;;;5.03;2.20;;;26.10;93.00;;;;;;5001673;28;20034;-77
2021/06/28 09:59:22;;;;;;;3.35;2.45;;;25.90;93.60;;;;;;4994107;28;20144;-78
2021/06/28 10:01:50;;;;;;;3.65;2.63;;;25.80;94.10;;;;;;5001264;28;20543;-78
2021/06/28 10:07:25;;;;;;;4.05;2.90;;;25.90;94.00;;;;;;5006703;28;20034;-78
2021/06/28 10:10:21;;;;;;;3.47;2.63;;;25.90;93.90;;;;;;5016379;28;20065;-77
2021/06/28 10:13:08;;;;;;;3.92;2.25;;;26.20;93.30;;;;;;5015488;28;20026;-78
2021/06/28 10:15:39;;;;;;;3.70;2.50;;;26.20;93.00;;;;;;5022430;28;20109;-78
2021/06/28 10:18:07;;;;;;;4.05;2.60;;;26.20;93.10;;;;;;5020949;28;20041;-78
2021/06/28 10:20:37;;;;;;;3.65;2.53;;;26.40;92.80;;;;;;5001705;28;20502;-79
2021/06/28 10:23:05;;;;;;;3.22;2.40;;;26.50;92.50;;;;;;5003824;28;20041;-79
2021/06/28 10:25:31;;;;;;;3.03;2.13;;;26.60;92.10;;;;;;5004514;28;20133;-78
2021/06/28 10:27:59;;;;;;;4.63;2.63;;;27.20;92.30;;;;;;4999604;28;20551;-77
2021/06/28 10:30:26;;;;;;;2.70;2.00;;;27.10;91.30;;;;;;5016356;28;20030;-78
2021/06/28 10:32:58;;;;;;;2.78;2.13;;;27.10;91.50;;;;;;5005965;28;20033;-78
2021/06/28 10:35:29;;;;;;;3.60;2.33;;;27.10;91.30;;;;;;5005696;28;20030;-78
2021/06/28 10:38:01;;;;;;;3.47;2.05;;;26.90;91.40;;;;;;5002562;28;20976;-79
2021/06/28 10:40:26;;;;;;;2.53;2.20;;;26.40;91.70;;;;;;5007431;28;20116;-78
2021/06/28 10:42:55;;;;;;;4.95;2.58;;;26.20;92.60;;;;;;5032391;28;20058;-79
2021/06/28 10:45:43;;;;;;;3.38;2.33;;;26.10;92.60;;;;;;5018780;28;20033;-78
2021/06/28 10:48:15;;;;;;;3.70;2.40;;;26.20;93.00;;;;;;5025302;28;20572;-78
2021/06/28 10:51:00;;;;;;;4.32;2.30;;;26.20;92.90;;;;;;5016311;28;20033;-78
2021/06/28 10:53:32;;;;;;;4.72;2.20;;;26.30;92.80;;;;;;5029846;28;20080;-78
2021/06/28 10:55:58;;;;;;;3.72;2.70;;;26.60;92.50;;;;;;5008020;28;20030;-79
2021/06/28 10:58:31;;;;;;;5.47;2.60;;;26.80;91.80;;;;;;5008383;28;20064;-79
2021/06/28 11:01:09;;;;;;;3.33;2.40;;;26.70;91.60;;;;;;4987111;28;20042;-78
2021/06/28 11:03:35;;;;;;;3.45;2.10;;;26.60;91.80;;;;;;5019754;28;20038;-78
2021/06/28 11:06:25;;;;;;;3.55;2.40;;;26.70;92.00;;;;;;5018077;28;20081;-79
2021/06/28 11:08:58;;;;;;;4.15;2.50;;;26.50;92.00;;;;;;5007295;28;20021;-78
2021/06/28 11:11:55;;;;;;;4.03;2.88;;;26.30;92.30;;;;;;5016926;28;20669;-79
2021/06/28 11:14:20;;;;;;;4.80;2.85;;;26.40;92.10;;;;;;5011623;28;20042;-79
2021/06/28 11:17:08;;;;;;;3.90;2.40;;;26.40;92.40;;;;;;5018574;28;20423;-77
2021/06/28 11:22:33;;;;;;;5.72;2.42;;;26.60;91.90;;;;;;5005502;28;20030;-79
2021/06/28 11:25:08;;;;;;;6.22;2.50;;;27.00;91.20;;;;;;5024539;28;20105;-78
2021/06/28 11:27:56;;;;;;;3.88;2.20;;;27.00;91.30;;;;;;4999465;28;20026;-79
2021/06/28 11:30:25;;;;;;;3.30;2.50;;;27.00;91.30;;;;;;4999376;28;20034;-79
2021/06/28 11:33:14;;;;;;;5.97;2.33;;;26.80;91.70;;;;;;5007228;28;20026;-78
2021/06/28 11:35:49;;;;;;;3.42;2.50;;;26.60;92.00;;;;;;5001601;28;21001;-79
2021/06/28 11:38:24;;;;;;;5.18;3.35;;;26.30;92.40;;;;;;5006594;28;20018;-78
2021/06/28 11:41:01;;;;;;;3.47;2.42;;;26.40;92.60;;;;;;5003414;28;20027;-79
2021/06/28 11:43:57;;;;;;;3.30;2.58;;;26.30;93.00;;;;;;5011984;28;20034;-79
2021/06/28 11:46:32;;;;;;;3.47;2.30;;;26.30;93.00;;;;;;5014730;28;20038;-80
2021/06/28 11:49:04;;;;;;;2.88;2.55;;;26.20;93.50;;;;;;5020251;28;20026;-79
2021/06/28 11:51:41;;;;;;;3.15;2.40;;;26.20;93.40;;;;;;5024553;28;20165;-77
2021/06/28 11:54:14;;;;;;;3.17;2.22;;;26.30;93.20;;;;;;5004645;28;20044;-79
2021/06/28 11:56:46;;;;;;;4.22;2.70;;;26.20;93.20;;;;;;5018752;28;20041;-81
2021/06/28 11:59:13;;;;;;;4.25;2.38;;;26.00;93.70;;;;;;5008462;28;20090;-79
2021/06/28 12:01:42;;;;;;;4.20;2.42;;;25.90;94.10;;;;;;5011867;28;20500;-79
2021/06/28 12:04:15;;;;;;;4.80;2.58;;;25.80;94.20;;;;;;5007239;28;20034;-81
2021/06/28 12:06:42;;;;;;;4.05;2.50;;;25.50;94.80;;;;;;5029220;28;20059;-80
2021/06/28 12:09:19;;;;;;;3.88;2.80;;;25.50;94.80;;;;;;5019520;28;20483;-81
2021/06/28 12:12:06;;;;;;;3.50;2.33;;;25.70;94.90;;;;;;5006794;28;22903;-80
2021/06/28 12:14:51;;;;;;;4.15;2.60;;;25.50;94.80;;;;;;5008489;28;20061;-80
2021/06/28 12:17:17;;;;;;;3.67;2.30;;;25.60;94.80;;;;;;5017621;28;20034;-81
2021/06/28 12:19:50;;;;;;;5.50;2.40;;;25.50;95.20;;;;;;5005172;28;20030;-79
2021/06/28 12:22:20;;;;;;;2.65;2.20;;;25.40;95.00;;;;;;5015495;28;20033;-79
2021/06/28 12:24:48;;;;;;;3.13;2.53;;;25.90;95.30;;;;;;5016652;28;20506;-78
2021/06/28 12:27:38;;;;;;;4.18;2.40;;;25.30;95.20;;;;;;5000888;28;20053;-78
2021/06/28 12:30:11;;;;;;;3.17;2.40;;;25.30;95.00;;;;;;5003590;28;20018;-79
2021/06/28 12:32:52;;;;;;;3.25;2.55;;;25.40;94.90;;;;;;5004663;28;20798;-79
2021/06/28 12:35:29;;;;;;;3.28;2.38;;;25.60;94.60;;;;;;5019519;28;20049;-80
2021/06/28 12:37:58;;;;;;;5.32;2.50;;;25.80;94.30;;;;;;5020349;28;20212;-79
2021/06/28 12:40:36;;;;;;;5.45;2.88;;;26.10;93.70;;;;;;5008514;28;20088;-80
2021/06/28 12:43:13;;;;;;;3.70;2.65;;;26.30;93.40;;;;;;5012533;28;20029;-79
2021/06/28 12:45:43;;;;;;;3.38;2.53;;;26.10;93.60;;;;;;4998467;28;20154;-78
2021/06/28 12:48:15;;;;;;;3.28;2.60;;;26.10;93.60;;;;;;4990304;28;20018;-78
2021/06/28 12:50:41;;;;;;;3.40;2.50;;;26.10;94.30;;;;;;4996394;28;20038;-78
2021/06/28 12:53:15;;;;;;;3.50;2.67;;;26.10;93.90;;;;;;5014021;28;20027;-78
2021/06/28 12:55:42;;;;;;;4.53;2.88;;;26.00;94.30;;;;;;5016516;28;20029;-77
2021/06/28 12:58:10;;;;;;;3.08;2.47;;;25.90;94.60;;;;;;5012571;28;20033;-78
2021/06/28 13:00:44;;;;;;;3.22;2.45;;;25.80;94.70;;;;;;5016225;28;20033;-77